Yoshino — JI3690 — position and weather

sailwx.info

Track history (hours):
 
Tides and Currents Weather Stations Pressure Air Temp Water Temp Dewpoint Dewpoint Depression Visibility Wind Speed Wind Dir Waves Ship Positions

Yoshino

Last reported at 2017-Nov-18 21:01 UTC. Time now 2017-Nov-18 21:14 UTC.
Position N 34°40' E 135°14'.

Length 38 m; draft 4 m.

Type: Tug. MMSI: 431301568.

Date/timePositionNaut miles runAvg speedWind from/ knotsBaromVisibWave heightAir tempDewpointWater temp
2017-Nov-18 21:01N 34°40' E 135°14'1 1.9
2017-Nov-18 20:30N 34°39' E 135°15'612.2
2017-Nov-18 20:01N 34°36' E 135°21'510.4
2017-Nov-18 19:31N 34°33' E 135°27'0 0.1
2017-Nov-18 18:52N 34°33' E 135°27'0 0.0
2017-Nov-18 18:28N 34°33' E 135°27'0 0.0
2017-Nov-18 18:00N 34°33' E 135°27'0 0.0
2017-Nov-18 17:30N 34°33' E 135°27'0 0.0
2017-Nov-18 16:59N 34°33' E 135°27'0 0.0
2017-Nov-18 16:30N 34°33' E 135°27'0 0.0
2017-Nov-18 16:00N 34°33' E 135°27'0 0.0
2017-Nov-18 15:24N 34°33' E 135°27'0 0.0
2017-Nov-18 14:59N 34°33' E 135°27'0 0.0
2017-Nov-18 14:30N 34°33' E 135°27'0 0.0
2017-Nov-18 13:57N 34°33' E 135°27'0 0.0
2017-Nov-18 13:29N 34°33' E 135°27'0 0.0
2017-Nov-18 12:59N 34°33' E 135°27'0 0.0
2017-Nov-18 12:27N 34°33' E 135°27'0 0.0
2017-Nov-18 11:56N 34°33' E 135°27'0 0.0
2017-Nov-18 11:29N 34°33' E 135°27'0 0.0
2017-Nov-18 11:00N 34°33' E 135°27'0 0.0
2017-Nov-18 10:19N 34°33' E 135°27'0 0.0
2017-Nov-18 09:59N 34°33' E 135°27'0 0.0
2017-Nov-18 09:26N 34°33' E 135°27'0 0.0
2017-Nov-18 08:59N 34°33' E 135°27'0 0.0
2017-Nov-18 08:21N 34°33' E 135°27'3 9.1
2017-Nov-18 07:59N 34°34' E 135°23'612.9
2017-Nov-18 07:30N 34°38' E 135°17'3 6.0
2017-Nov-18 07:00N 34°40' E 135°14'0 0.0
2017-Nov-18 06:31N 34°40' E 135°14'0 0.0
2017-Nov-18 06:01N 34°40' E 135°14'0 0.0
2017-Nov-18 05:31N 34°40' E 135°14'0 0.0
2017-Nov-18 05:00N 34°40' E 135°14'0 0.0
2017-Nov-18 04:31N 34°40' E 135°14'0 0.0
2017-Nov-18 04:00N 34°40' E 135°14'0 0.0
2017-Nov-18 03:31N 34°40' E 135°14'0 0.0
2017-Nov-18 03:00N 34°40' E 135°14'0 0.0
2017-Nov-18 02:31N 34°40' E 135°14'0 0.0
2017-Nov-18 02:01N 34°40' E 135°14'0 0.0
2017-Nov-18 01:31N 34°40' E 135°14'0 0.0
2017-Nov-18 01:00N 34°40' E 135°14'0 0.0
2017-Nov-18 00:31N 34°40' E 135°14'0 0.0
2017-Nov-18 00:01N 34°40' E 135°14'0 0.1
2017-Nov-17 23:30N 34°40' E 135°14'0 0.1
2017-Nov-17 23:01N 34°40' E 135°14'0 0.1
2017-Nov-17 22:30N 34°40' E 135°14'0 0.0
2017-Nov-17 22:01N 34°40' E 135°14'1 2.3
2017-Nov-17 21:31N 34°41' E 135°15'0 0.9
2017-Nov-17 21:00N 34°41' E 135°14'0 0.1
2017-Nov-17 20:30N 34°41' E 135°14'1 2.2
2017-Nov-17 19:59N 34°40' E 135°15'612.5
2017-Nov-17 19:30N 34°36' E 135°21'511.2
2017-Nov-17 19:00N 34°33' E 135°27'0 0.4
2017-Nov-17 18:30N 34°33' E 135°27'0 0.0
2017-Nov-17 17:58N 34°33' E 135°27'0 0.0
2017-Nov-17 17:31N 34°33' E 135°27'0 0.0
2017-Nov-17 16:57N 34°33' E 135°27'0 0.0
2017-Nov-17 16:28N 34°33' E 135°27'0 0.0
2017-Nov-17 15:45N 34°33' E 135°27'0 0.0
2017-Nov-17 15:30N 34°33' E 135°27'0 0.0
2017-Nov-17 14:39N 34°33' E 135°27'0 0.0
2017-Nov-17 14:25N 34°33' E 135°27'0 0.0
2017-Nov-17 14:00N 34°33' E 135°27'0 0.0
2017-Nov-17 13:30N 34°33' E 135°27'0 0.0
2017-Nov-17 13:00N 34°33' E 135°27'0 0.0
2017-Nov-17 12:25N 34°33' E 135°27'0 0.0
2017-Nov-17 11:57N 34°33' E 135°27'0 0.0
2017-Nov-17 11:22N 34°33' E 135°27'0 0.0
2017-Nov-17 10:44N 34°33' E 135°27'0 0.0
2017-Nov-17 10:30N 34°33' E 135°27'0 0.0
2017-Nov-17 09:52N 34°33' E 135°27'0 0.0
2017-Nov-17 09:24N 34°33' E 135°27'0 0.0
2017-Nov-17 08:56N 34°33' E 135°27'0 0.0
2017-Nov-17 07:56N 34°33' E 135°27'0 0.0
2017-Nov-17 07:19N 34°33' E 135°27'2 6.1
2017-Nov-17 06:59N 34°34' E 135°24'511.0
2017-Nov-17 06:30N 34°39' E 135°24'1 3.0
2017-Nov-17 06:01N 34°38' E 135°23'2 3.7
2017-Nov-17 05:30N 34°36' E 135°24'0 0.6
2017-Nov-17 05:00N 34°36' E 135°24'0 0.0
2017-Nov-17 04:31N 34°36' E 135°24'0 0.0
2017-Nov-17 03:59N 34°36' E 135°24'2 1.3
2017-Nov-17 02:11N 34°34' E 135°24'3 4.5
2017-Nov-17 01:30N 34°33' E 135°21'1 2.2
2017-Nov-17 01:00N 34°33' E 135°22'4 0.3
2017-Nov-16 10:15N 34°33' E 135°27'3 8.7
2017-Nov-16 09:56N 34°35' E 135°24'4 9.7
2017-Nov-16 09:30N 34°39' E 135°26'0 0.8
2017-Nov-16 09:00N 34°39' E 135°26'0 0.6
2017-Nov-16 08:30N 34°39' E 135°26'0 0.0
2017-Nov-16 08:00N 34°39' E 135°26'0 0.0
2017-Nov-16 07:28N 34°39' E 135°26'0 0.0
2017-Nov-16 07:00N 34°39' E 135°26'0 0.0
2017-Nov-16 06:30N 34°39' E 135°26'1 1.2
2017-Nov-16 06:00N 34°39' E 135°26'0 0.2
2017-Nov-16 05:30N 34°39' E 135°26'3 5.8
2017-Nov-16 05:00N 34°37' E 135°23'5 8.7
2017-Nov-16 04:29N 34°33' E 135°27'0 0.0
2017-Nov-15 06:38N 34°33' E 135°27'0 0.0
2017-Nov-14 23:50N 34°33' E 135°27'2 7.2
2017-Nov-14 23:30N 34°32' E 135°24'1 2.1
2017-Nov-14 22:57N 34°31' E 135°25'2 3.7
2017-Nov-14 22:28N 34°33' E 135°23'1 2.0
2017-Nov-14 22:00N 34°34' E 135°23'3 3.9
2017-Nov-14 21:19N 34°33' E 135°27'0 0.0
2017-Nov-14 20:42N 34°33' E 135°27'0 0.0
2017-Nov-14 20:30N 34°33' E 135°27'0 0.0
2017-Nov-14 19:57N 34°33' E 135°27'0 0.0
2017-Nov-14 19:30N 34°33' E 135°27'0 0.0
2017-Nov-14 18:54N 34°33' E 135°27'0 0.0
2017-Nov-14 17:35N 34°33' E 135°27'0 0.0
2017-Nov-14 17:27N 34°33' E 135°27'0 0.0
2017-Nov-14 17:00N 34°33' E 135°27'0 0.0
2017-Nov-14 16:29N 34°33' E 135°27'0 0.0
2017-Nov-14 16:00N 34°33' E 135°27'0 0.0
2017-Nov-14 15:29N 34°33' E 135°27'0 0.0
2017-Nov-14 15:00N 34°33' E 135°27'0 0.0
2017-Nov-14 14:25N 34°33' E 135°27'0 0.0
2017-Nov-14 13:59N 34°33' E 135°27'0 0.0
2017-Nov-14 12:48N 34°33' E 135°27'0 0.0
2017-Nov-14 07:36N 34°33' E 135°27'1 7.2
2017-Nov-14 07:30N 34°33' E 135°26'510.1
2017-Nov-14 07:00N 34°38' E 135°23'2 4.9
2017-Nov-14 06:31N 34°39' E 135°26'0 0.1
2017-Nov-14 06:01N 34°39' E 135°26'0 0.9
2017-Nov-14 05:31N 34°39' E 135°26'0 0.0
2017-Nov-14 05:01N 34°39' E 135°26'0 0.0
2017-Nov-14 04:30N 34°39' E 135°26'2 3.3
2017-Nov-14 04:00N 34°38' E 135°25'1 1.2
2017-Nov-14 03:30N 34°37' E 135°24'1 2.6
2017-Nov-14 03:00N 34°37' E 135°23'1 1.3
2017-Nov-14 02:30N 34°37' E 135°23'4 7.3
2017-Nov-14 01:58N 34°33' E 135°25'1 0.0
2017-Nov-12 06:09N 34°33' E 135°27'1 4.9
2017-Nov-12 06:00N 34°33' E 135°26'0 0.9
2017-Nov-12 05:30N 34°33' E 135°25'0 0.1
2017-Nov-12 05:00N 34°33' E 135°25'2 2.8
2017-Nov-12 04:28N 34°33' E 135°23'2 3.6
2017-Nov-12 03:59N 34°33' E 135°25'1 1.6
2017-Nov-12 03:29N 34°33' E 135°25'3 5.3
2017-Nov-12 02:58N 34°36' E 135°24'0 0.0
2017-Nov-12 02:27N 34°36' E 135°24'0 0.0
2017-Nov-12 02:00N 34°36' E 135°24'3 6.1
2017-Nov-12 01:30N 34°39' E 135°24'1 1.1
2017-Nov-12 01:00N 34°38' E 135°24'0 0.8
2017-Nov-12 00:30N 34°38' E 135°24'0 0.2
2017-Nov-12 00:00N 34°38' E 135°24'0 0.2
2017-Nov-11 23:30N 34°38' E 135°24'1 1.8
2017-Nov-11 23:00N 34°39' E 135°24'1 1.5
2017-Nov-11 22:30N 34°39' E 135°25'3 6.2
2017-Nov-11 22:00N 34°37' E 135°23'4 8.7
2017-Nov-11 21:30N 34°33' E 135°27'  
2017-Nov-09 17:15N 34°33' E 135°27'2 8.4
2017-Nov-09 17:00N 34°33' E 135°24'612.3
2017-Nov-09 16:30N 34°37' E 135°18'5 9.7
2017-Nov-09 16:00N 34°41' E 135°14'2 3.9
2017-Nov-09 15:30N 34°39' E 135°16'3 5.3
2017-Nov-09 15:00N 34°37' E 135°16'3 5.5
2017-Nov-09 14:30N 34°35' E 135°13'3 5.5
2017-Nov-09 13:59N 34°35' E 135°10'3 6.0
2017-Nov-09 13:30N 34°35' E 135°06'4 6.2
2017-Nov-09 12:56N 34°36' E 135°02'3 5.8
2017-Nov-09 12:26N 34°37' E 134°59'  
Track history (hours):
 
Tides and Currents Weather Stations Pressure Air Temp Water Temp Dewpoint Dewpoint Depression Visibility Wind Speed Wind Dir Waves Ship Positions

Yoshino

Last reported at 2017-Nov-18 21:01 UTC. Time now 2017-Nov-18 21:14 UTC.
Position N 34°40' E 135°14'.

Length 38 m; draft 4 m.

Type: Tug. MMSI: 431301568.

Date/timePositionNaut miles runAvg speedWind from/ knotsBaromVisibWave heightAir tempDewpointWater temp
2017-Nov-18 21:01N 34°40' E 135°14'1 1.9
2017-Nov-18 20:30N 34°39' E 135°15'612.2
2017-Nov-18 20:01N 34°36' E 135°21'510.4
2017-Nov-18 19:31N 34°33' E 135°27'0 0.1
2017-Nov-18 18:52N 34°33' E 135°27'0 0.0
2017-Nov-18 18:28N 34°33' E 135°27'0 0.0
2017-Nov-18 18:00N 34°33' E 135°27'0 0.0
2017-Nov-18 17:30N 34°33' E 135°27'0 0.0
2017-Nov-18 16:59N 34°33' E 135°27'0 0.0
2017-Nov-18 16:30N 34°33' E 135°27'0 0.0
2017-Nov-18 16:00N 34°33' E 135°27'0 0.0
2017-Nov-18 15:24N 34°33' E 135°27'0 0.0
2017-Nov-18 14:59N 34°33' E 135°27'0 0.0
2017-Nov-18 14:30N 34°33' E 135°27'0 0.0
2017-Nov-18 13:57N 34°33' E 135°27'0 0.0
2017-Nov-18 13:29N 34°33' E 135°27'0 0.0
2017-Nov-18 12:59N 34°33' E 135°27'0 0.0
2017-Nov-18 12:27N 34°33' E 135°27'0 0.0
2017-Nov-18 11:56N 34°33' E 135°27'0 0.0
2017-Nov-18 11:29N 34°33' E 135°27'0 0.0
2017-Nov-18 11:00N 34°33' E 135°27'0 0.0
2017-Nov-18 10:19N 34°33' E 135°27'0 0.0
2017-Nov-18 09:59N 34°33' E 135°27'0 0.0
2017-Nov-18 09:26N 34°33' E 135°27'0 0.0
2017-Nov-18 08:59N 34°33' E 135°27'0 0.0
2017-Nov-18 08:21N 34°33' E 135°27'3 9.1
2017-Nov-18 07:59N 34°34' E 135°23'612.9
2017-Nov-18 07:30N 34°38' E 135°17'3 6.0
2017-Nov-18 07:00N 34°40' E 135°14'0 0.0
2017-Nov-18 06:31N 34°40' E 135°14'0 0.0
2017-Nov-18 06:01N 34°40' E 135°14'0 0.0
2017-Nov-18 05:31N 34°40' E 135°14'0 0.0
2017-Nov-18 05:00N 34°40' E 135°14'0 0.0
2017-Nov-18 04:31N 34°40' E 135°14'0 0.0
2017-Nov-18 04:00N 34°40' E 135°14'0 0.0
2017-Nov-18 03:31N 34°40' E 135°14'0 0.0
2017-Nov-18 03:00N 34°40' E 135°14'0 0.0
2017-Nov-18 02:31N 34°40' E 135°14'0 0.0
2017-Nov-18 02:01N 34°40' E 135°14'0 0.0
2017-Nov-18 01:31N 34°40' E 135°14'0 0.0
2017-Nov-18 01:00N 34°40' E 135°14'0 0.0
2017-Nov-18 00:31N 34°40' E 135°14'0 0.0
2017-Nov-18 00:01N 34°40' E 135°14'0 0.1
2017-Nov-17 23:30N 34°40' E 135°14'0 0.1
2017-Nov-17 23:01N 34°40' E 135°14'0 0.1
2017-Nov-17 22:30N 34°40' E 135°14'0 0.0
2017-Nov-17 22:01N 34°40' E 135°14'1 2.3
2017-Nov-17 21:31N 34°41' E 135°15'0 0.9
2017-Nov-17 21:00N 34°41' E 135°14'0 0.1
2017-Nov-17 20:30N 34°41' E 135°14'1 2.2
2017-Nov-17 19:59N 34°40' E 135°15'612.5
2017-Nov-17 19:30N 34°36' E 135°21'511.2
2017-Nov-17 19:00N 34°33' E 135°27'0 0.4
2017-Nov-17 18:30N 34°33' E 135°27'0 0.0
2017-Nov-17 17:58N 34°33' E 135°27'0 0.0
2017-Nov-17 17:31N 34°33' E 135°27'0 0.0
2017-Nov-17 16:57N 34°33' E 135°27'0 0.0
2017-Nov-17 16:28N 34°33' E 135°27'0 0.0
2017-Nov-17 15:45N 34°33' E 135°27'0 0.0
2017-Nov-17 15:30N 34°33' E 135°27'0 0.0
2017-Nov-17 14:39N 34°33' E 135°27'0 0.0
2017-Nov-17 14:25N 34°33' E 135°27'0 0.0
2017-Nov-17 14:00N 34°33' E 135°27'0 0.0
2017-Nov-17 13:30N 34°33' E 135°27'0 0.0
2017-Nov-17 13:00N 34°33' E 135°27'0 0.0
2017-Nov-17 12:25N 34°33' E 135°27'0 0.0
2017-Nov-17 11:57N 34°33' E 135°27'0 0.0
2017-Nov-17 11:22N 34°33' E 135°27'0 0.0
2017-Nov-17 10:44N 34°33' E 135°27'0 0.0
2017-Nov-17 10:30N 34°33' E 135°27'0 0.0
2017-Nov-17 09:52N 34°33' E 135°27'0 0.0
2017-Nov-17 09:24N 34°33' E 135°27'0 0.0
2017-Nov-17 08:56N 34°33' E 135°27'0 0.0
2017-Nov-17 07:56N 34°33' E 135°27'0 0.0
2017-Nov-17 07:19N 34°33' E 135°27'2 6.1
2017-Nov-17 06:59N 34°34' E 135°24'511.0
2017-Nov-17 06:30N 34°39' E 135°24'1 3.0
2017-Nov-17 06:01N 34°38' E 135°23'2 3.7
2017-Nov-17 05:30N 34°36' E 135°24'0 0.6
2017-Nov-17 05:00N 34°36' E 135°24'0 0.0
2017-Nov-17 04:31N 34°36' E 135°24'0 0.0
2017-Nov-17 03:59N 34°36' E 135°24'2 1.3
2017-Nov-17 02:11N 34°34' E 135°24'3 4.5
2017-Nov-17 01:30N 34°33' E 135°21'1 2.2
2017-Nov-17 01:00N 34°33' E 135°22'4 0.3
2017-Nov-16 10:15N 34°33' E 135°27'3 8.7
2017-Nov-16 09:56N 34°35' E 135°24'4 9.7
2017-Nov-16 09:30N 34°39' E 135°26'0 0.8
2017-Nov-16 09:00N 34°39' E 135°26'0 0.6
2017-Nov-16 08:30N 34°39' E 135°26'0 0.0
2017-Nov-16 08:00N 34°39' E 135°26'0 0.0
2017-Nov-16 07:28N 34°39' E 135°26'0 0.0
2017-Nov-16 07:00N 34°39' E 135°26'0 0.0
2017-Nov-16 06:30N 34°39' E 135°26'1 1.2
2017-Nov-16 06:00N 34°39' E 135°26'0 0.2
2017-Nov-16 05:30N 34°39' E 135°26'3 5.8
2017-Nov-16 05:00N 34°37' E 135°23'5 8.7
2017-Nov-16 04:29N 34°33' E 135°27'0 0.0
2017-Nov-15 06:38N 34°33' E 135°27'0 0.0
2017-Nov-14 23:50N 34°33' E 135°27'2 7.2
2017-Nov-14 23:30N 34°32' E 135°24'1 2.1
2017-Nov-14 22:57N 34°31' E 135°25'2 3.7
2017-Nov-14 22:28N 34°33' E 135°23'1 2.0
2017-Nov-14 22:00N 34°34' E 135°23'3 3.9
2017-Nov-14 21:19N 34°33' E 135°27'0 0.0
2017-Nov-14 20:42N 34°33' E 135°27'0 0.0
2017-Nov-14 20:30N 34°33' E 135°27'0 0.0
2017-Nov-14 19:57N 34°33' E 135°27'0 0.0
2017-Nov-14 19:30N 34°33' E 135°27'0 0.0
2017-Nov-14 18:54N 34°33' E 135°27'0 0.0
2017-Nov-14 17:35N 34°33' E 135°27'0 0.0
2017-Nov-14 17:27N 34°33' E 135°27'0 0.0
2017-Nov-14 17:00N 34°33' E 135°27'0 0.0
2017-Nov-14 16:29N 34°33' E 135°27'0 0.0
2017-Nov-14 16:00N 34°33' E 135°27'0 0.0
2017-Nov-14 15:29N 34°33' E 135°27'0 0.0
2017-Nov-14 15:00N 34°33' E 135°27'0 0.0
2017-Nov-14 14:25N 34°33' E 135°27'0 0.0
2017-Nov-14 13:59N 34°33' E 135°27'0 0.0
2017-Nov-14 12:48N 34°33' E 135°27'0 0.0
2017-Nov-14 07:36N 34°33' E 135°27'1 7.2
2017-Nov-14 07:30N 34°33' E 135°26'510.1
2017-Nov-14 07:00N 34°38' E 135°23'2 4.9
2017-Nov-14 06:31N 34°39' E 135°26'0 0.1
2017-Nov-14 06:01N 34°39' E 135°26'0 0.9
2017-Nov-14 05:31N 34°39' E 135°26'0 0.0
2017-Nov-14 05:01N 34°39' E 135°26'0 0.0
2017-Nov-14 04:30N 34°39' E 135°26'2 3.3
2017-Nov-14 04:00N 34°38' E 135°25'1 1.2
2017-Nov-14 03:30N 34°37' E 135°24'1 2.6
2017-Nov-14 03:00N 34°37' E 135°23'1 1.3
2017-Nov-14 02:30N 34°37' E 135°23'4 7.3
2017-Nov-14 01:58N 34°33' E 135°25'1 0.0
2017-Nov-12 06:09N 34°33' E 135°27'1 4.9
2017-Nov-12 06:00N 34°33' E 135°26'0 0.9
2017-Nov-12 05:30N 34°33' E 135°25'0 0.1
2017-Nov-12 05:00N 34°33' E 135°25'2 2.8
2017-Nov-12 04:28N 34°33' E 135°23'2 3.6
2017-Nov-12 03:59N 34°33' E 135°25'1 1.6
2017-Nov-12 03:29N 34°33' E 135°25'3 5.3
2017-Nov-12 02:58N 34°36' E 135°24'0 0.0
2017-Nov-12 02:27N 34°36' E 135°24'0 0.0
2017-Nov-12 02:00N 34°36' E 135°24'3 6.1
2017-Nov-12 01:30N 34°39' E 135°24'1 1.1
2017-Nov-12 01:00N 34°38' E 135°24'0 0.8
2017-Nov-12 00:30N 34°38' E 135°24'0 0.2
2017-Nov-12 00:00N 34°38' E 135°24'0 0.2
2017-Nov-11 23:30N 34°38' E 135°24'1 1.8
2017-Nov-11 23:00N 34°39' E 135°24'1 1.5
2017-Nov-11 22:30N 34°39' E 135°25'3 6.2
2017-Nov-11 22:00N 34°37' E 135°23'4 8.7
2017-Nov-11 21:30N 34°33' E 135°27'  
2017-Nov-09 17:15N 34°33' E 135°27'2 8.4
2017-Nov-09 17:00N 34°33' E 135°24'612.3
2017-Nov-09 16:30N 34°37' E 135°18'5 9.7
2017-Nov-09 16:00N 34°41' E 135°14'2 3.9
2017-Nov-09 15:30N 34°39' E 135°16'3 5.3
2017-Nov-09 15:00N 34°37' E 135°16'3 5.5
2017-Nov-09 14:30N 34°35' E 135°13'3 5.5
2017-Nov-09 13:59N 34°35' E 135°10'3 6.0
2017-Nov-09 13:30N 34°35' E 135°06'4 6.2
2017-Nov-09 12:56N 34°36' E 135°02'3 5.8
2017-Nov-09 12:26N 34°37' E 134°59'  

Dump ship's entire track history